Terminal Aerodrome Forecast
Issued by NWS

Home | Current Version | Previous Version | Text Only | Print | Product List | Glossary On
Versions: 1 2 3 4 5 6 7 8 9 10 11 12 13 14 15 16
104
FTUS41 KLWX 141127
TAFMTN
TAF
KMTN 141127Z 1412/1512 25008KT P6SM BKN050
     FM141500 28012G22KT P6SM BKN050
     FM141700 30012G22KT P6SM SCT050 SCT200
     FM142200 31008KT P6SM BKN200
     FM150000 VRB04KT P6SM BKN150=

USA.gov is the U.S. government's official web portal to all federal, state and local government web resources and services.